Domov               UVHVVR             MKGP            O straneh              
ZDRAVSTVENO VARSTVO RASTLIN
  MREŽA AGROMET. POSTAJ
 ► PROGNOSTIČNA OBVESTILA
AGROMETEOROLOŠKI PODATKI -
ARSO
OBVLADOVANJE TVEGANJ ZARADI
NEUGODNIH VREMENSKIH RAZMER
  ► NARAVNE NESREČE
  ► SUŠA/MOČA
  ► NAMAKANJE
  ► ŽLED (gozdarstvo)
KARTOGRAFSKI PRIKAZI
SPLETNE POVEZAVE
PROJEKTI IN PUBLIKACIJE

AGROMETEOROLOŠKA MREŽA: VREMENSKE POSTAJE IN FENOLOŠKA OPAZOVANJA

Pregled podatkov za lokacijo Zimica, meteorološka postaja 27472

Pregled senzorjev na lokaciji

ID Ime Zadnja
vrednost
Datum
zadnje
spremembe
Tip
senzorja
1715 Padavine (mm) 0 mm 19.2.2018 06:30 Generic 0.2 mm
1714 Relativna vlaga 2 m (% RH) 74,53 % RH 19.2.2018 06:30 Generic 0 - 100 %
1713 Temperatura 2 m (°C) -1,37 °C 19.2.2018 06:30 Generic -40 - +60 °C

Pregled podatkov zadnjih 24 ur

Zap.
št.
Datum in čas Zimica
Padavine Relativna
vlaga
2
m
Temperatura
2
m
1 19.2.2018 07:00
2 19.2.2018 06:30 0 74,5 -1,4
3 19.2.2018 06:00 0 74,7 -1,3
4 19.2.2018 05:30 0 73,2 -1,2
5 19.2.2018 05:00 0 73,6 -1,2
6 19.2.2018 04:30 0 73,7 -1,3
7 19.2.2018 04:00 0 74,5 -1,3
8 19.2.2018 03:30 0 74 -1,2
9 19.2.2018 03:00 0 74,9 -1,3
10 19.2.2018 02:30 0 77,5 -1,3
11 19.2.2018 02:00 0 77,3 -1,1
12 19.2.2018 01:30 0 73 -0,8
13 19.2.2018 01:00 0 72,6 -0,6
14 19.2.2018 00:30 0 73,6 -0,2
15 19.2.2018 00:00 0 74,9 0,1
16 18.2.2018 23:30 0 75,4 0,4
17 18.2.2018 23:00 0 73,9 0,7
18 18.2.2018 22:30 0 72,7 0,8
19 18.2.2018 22:00 0 70,5 0,9
20 18.2.2018 21:30 0 68,4 1
21 18.2.2018 21:00 0 67,8 1,1
22 18.2.2018 20:30 0 67,6 1,2
23 18.2.2018 20:00 0 66,4 1,4
24 18.2.2018 19:30 0 64,6 1,6
25 18.2.2018 19:00 0 63,8 1,7
26 18.2.2018 18:30 0 65,4 1,8
27 18.2.2018 18:00 0 65,1 2,1
28 18.2.2018 17:30 0 65,1 2,3
29 18.2.2018 17:00 0 66,1 2,5
30 18.2.2018 16:30 0 63,7 2,8
31 18.2.2018 16:00 0 62,5 3,2
32 18.2.2018 15:30 0 63 3,4
33 18.2.2018 15:00 0 66,5 3,4
34 18.2.2018 14:30 0 75 3
35 18.2.2018 14:00 0 78,1 2,9
36 18.2.2018 13:30 0 79,9 2,6
37 18.2.2018 13:00 0 79,9 2,5
38 18.2.2018 12:30 0 77,9 2,9
39 18.2.2018 12:00 0 77,7 3
40 18.2.2018 11:30 0 81,1 2,4
41 18.2.2018 11:00 0 86,7 1,5
42 18.2.2018 10:30 0 89,5 1,2
43 18.2.2018 10:00 0 91,4 0,9
44 18.2.2018 09:30 0 92,7 0,4
45 18.2.2018 09:00 0 90,9 0,6
46 18.2.2018 08:30 0 93,8 0,2
47 18.2.2018 08:00 0 96,6 0
48 18.2.2018 07:30 0 98,8 -0,2
© 2011 Ministrstvo za kmetijstvo, gozdarstvo in prehrano. Vse pravice pridržane.